EW2093 Weather Reports


time (UTC)temp
C
wind
direction
speed
KPH
gust
KPH
rain 1hr
cm
rain 24hr
cm
rain mn
cm
humidity
%
barometer
mb
20190418123127 13 135 12.9 29.0 0.00 0.00 0.00 66 1015.1
20190418121636 14 120 16.1 27.4 0.00 0.00 0.00 69 1015.2
20190418120133 13 120 8.0 24.1 0.00 0.00 0.00 70 1015.5
20190418114624 13 112 22.5 32.2 0.00 0.00 0.00 70 1015.4
20190418113122 12 122 12.9 24.1 0.00 0.00 0.00 74 1015.7
20190418111627 12 104 9.7 16.1 0.00 0.00 0.00 79 1015.7
20190418110129 11 133 12.9 19.3 0.00 0.00 0.00 81 1015.6
20190418104634 11 116 12.9 25.7 0.00 0.00 0.00 82 1015.9
20190418103135 11 118 14.5 25.7 0.00 0.00 0.00 84 1015.7
20190418101623 10 120 14.5 37.0 0.00 0.00 0.00 87 1015.9
20190418100126 11 110 20.9 37.0 0.00 0.00 0.00 86 1016.3
20190418094635 11 117 30.6 43.5 0.00 0.00 0.00 85 1016.2
20190418093131 11 114 29.0 40.2 0.00 0.00 0.00 84 1016.2
20190418090126 11 107 20.9 37.0 0.00 0.00 0.00 84 1016.2
20190418084633 11 128 16.1 32.2 0.00 0.00 0.00 81 1015.7
20190418083132 11 149 16.1 33.8 0.00 0.00 0.00 80 1015.5
20190418081625 11 139 16.1 35.4 0.00 0.00 0.00 78 1015.4
20190418080121 11 151 11.3 22.5 0.00 0.00 0.00 78 1015.4
20190418074628 11 89 12.9 32.2 0.00 0.00 0.00 77 1015.3
20190418073130 11 130 12.9 25.7 0.00 0.00 0.00 78 1015.1
20190418071637 11 145 16.1 27.4 0.00 0.00 0.00 79 1015.3
20190418070135 11 124 11.3 29.0 0.00 0.00 0.00 79 1015.1
20190418064624 11 101 11.3 25.7 0.00 0.00 0.00 79 1014.9
20190418063128 11 153 11.3 25.7 0.00 0.00 0.00 79 1014.3
20190418061631 11 125 20.9 37.0 0.00 0.00 0.00 77 1014.4
20190418060129 11 141 19.3 32.2 0.00 0.00 0.00 77 1014.6
20190418054633 11 151 11.3 17.7 0.00 0.00 0.00 76 1014.6
20190418053136 11 150 14.5 25.7 0.00 0.00 0.00 75 1014.6
20190418051625 11 122 25.7 40.2 0.00 0.00 0.00 76 1013.8
20190418050125 11 99 33.8 45.1 0.00 0.00 0.00 76 1013.7
20190418044636 11 120 32.2 41.8 0.00 0.00 0.00 75 1013.7
20190418043134 11 108 19.3 32.2 0.00 0.00 0.00 78 1013.9
20190418041622 11 91 20.9 33.8 0.00 0.00 0.00 80 1014.1
20190418040122 11 79 17.7 32.2 0.00 0.00 0.00 79 1014.1
20190418034626 11 116 19.3 27.4 0.00 0.00 0.00 76 1014.1
20190418033126 12 128 14.5 22.5 0.00 0.00 0.00 75 1014.1
20190418031630 12 40 4.8 29.0 0.00 0.00 0.00 74 1014.4
20190418030133 12 106 20.9 40.2 0.00 0.00 0.00 74 1013.7
20190418024621 12 101 27.4 48.3 0.00 0.00 0.00 74 1013.4
20190418023122 12 86 24.1 40.2 0.00 0.00 0.00 74 1013.4
20190418021631 12 100 22.5 43.5 0.00 0.00 0.00 73 1013.4
20190418020134 12 87 24.1 38.6 0.00 0.00 0.00 73 1013.4
20190418014619 12 69 19.3 29.0 0.00 0.00 0.00 73 1013.5
20190418013120 12 97 25.7 35.4 0.00 0.00 0.00 72 1013.6
20190418011633 12 105 19.3 41.8 0.00 0.00 0.00 69 1013.5
20190418010130 12 99 20.9 49.9 0.00 0.00 0.00 68 1013.4
20190418004638 13 82 30.6 54.7 0.00 0.00 0.00 67 1012.9
20190418003136 13 101 41.8 53.1 0.00 0.00 0.00 67 1012.5
20190418001629 13 124 29.0 46.7 0.00 0.00 0.00 68 1012.7
20190418000126 13 119 29.0 43.5 0.00 0.00 0.00 69 1013.1
20190417234631 13 97 33.8 40.2 0.00 0.00 0.00 70 1013.6
20190417233134 13 108 22.5 29.0 0.00 0.00 0.00 69 1014.4
20190417231622 13 45 6.4 16.1 0.00 0.00 0.00 68 1014.6
20190417230120 14 66 6.4 25.7 0.00 0.00 0.00 69 1014.4
20190417224623 14 83 14.5 22.5 0.00 0.00 0.00 69 1013.9
20190417223126 14 111 12.9 24.1 0.00 0.00 0.00 68 1013.9
20190417221632 14 91 14.5 30.6 0.00 0.00 0.00 68 1013.7
20190417220133 14 106 16.1 25.7 0.00 0.00 0.00 68 1013.0
20190417214620 14 62 11.3 20.9 0.00 0.00 0.00 66 1013.1
20190417213121 15 105 19.3 24.1 0.00 0.00 0.00 65 1013.1
20190417211628 15 76 17.7 29.0 0.00 0.00 0.00 64 1013.3
20190417210130 16 79 12.9 32.2 0.00 0.00 0.00 62 1013.3
20190417204622 16 60 14.5 29.0 0.00 0.00 0.00 60 1012.8
20190417203122 16 318 9.7 22.5 0.00 0.00 0.00 63 1013.6
20190417201630 16 156 4.8 37.0 0.00 0.00 0.00 62 1012.1
20190417200135 16 126 30.6 51.5 0.00 0.00 0.00 63 1010.5
20190417194624 16 117 32.2 48.3 0.00 0.00 0.00 63 1010.2
20190417193126 16 121 32.2 53.1 0.00 0.00 0.00 62 1009.7
20190417191633 16 111 22.5 54.7 0.00 0.00 0.00 59 1009.7
20190417190135 16 120 27.4 46.7 0.00 0.00 0.00 59 1009.9
20190417184622 16 117 24.1 46.7 0.00 0.00 0.00 60 1010.0
20190417183120 17 124 25.7 48.3 0.00 0.00 0.00 61 1009.8
20190417181629 16 145 20.9 53.1 0.00 0.00 0.00 64 1010.1
20190417180129 17 91 27.4 43.5 0.00 0.00 0.00 63 1009.7
20190417174634 17 108 24.1 37.0 0.00 0.00 0.00 63 1010.2
20190417173131 17 116 29.0 43.5 0.00 0.00 0.00 64 1010.2
20190417171639 17 120 25.7 53.1 0.00 0.00 0.00 64 1010.1
20190417170137 17 116 37.0 53.1 0.00 0.00 0.00 62 1009.9
20190417164626 18 113 27.4 49.9 0.00 0.00 0.00 60 1009.9
20190417163128 18 110 25.7 38.6 0.00 0.00 0.00 63 1009.9
20190417161632 17 115 27.4 51.5 0.00 0.00 0.00 64 1009.8
20190417160133 18 110 25.7 53.1 0.00 0.00 0.00 66 1010.1
20190417154636 17 93 32.2 46.7 0.00 0.00 0.00 65 1010.2
20190417153138 17 120 22.5 46.7 0.00 0.00 0.00 65 1010.6
20190417151627 17 125 17.7 33.8 0.00 0.00 0.00 64 1010.8
20190417150125 17 143 22.5 38.6 0.00 0.00 0.00 64 1010.7
20190417144631 16 139 22.5 33.8 0.00 0.00 0.00 65 1010.8
20190417143136 16 133 24.1 41.8 0.00 0.00 0.00 67 1010.9
20190417141623 16 127 22.5 40.2 0.00 0.00 0.00 68 1011.1
20190417140121 16 103 17.7 35.4 0.00 0.00 0.00 68 1011.3
20190417134634 16 172 17.7 33.8 0.00 0.00 0.00 67 1011.4
20190417133138 16 139 22.5 40.2 0.00 0.00 0.00 66 1011.5
20190417131623 15 95 14.5 29.0 0.00 0.00 0.00 68 1012.0
20190417130131 15 106 25.7 41.8 0.00 0.00 0.00 67 1012.1
20190417124638 15 141 19.3 38.6 0.00 0.00 0.00 68 1011.7